Weerspreuk van de dag: Als de kat in januari in de zon ligt, ligt ze in februari achter de kachel.
Het weer levert geen direct gevaar op.    Er zijn geen waarschuwingen afgegeven.

Onweer radar Meer informatie blitzortung!


Regen radar Meer informatie rain snow radar


Bekijk deze sites ook eens:

FPL Automotive (TIP)

Autostekkers.nl (TIP)

Over Luyksgestel

De Kempen, mijn omgeving

BOL.com

Weerstation Noordbergum

Inktweb

Weerstation Hapert

Weerstation Hoogeloon

Weerstation Son&Breugel

Weerstation Castaert

Nieuw horloge

Weerstation Tilburg Reeshof

Weerstation Scheulder

Weerverwachting Samos

Samos actueel

Weerwoord (forum)

Griekenlandforum

Vakantie naar Samos

Winterzon

Canon

Wolven in Nederland



METAR rapporten vliegvelden

   
EBAW - Antwerp
Gewijzigd: 18-01-2020 21:20
Licht bewolkt  
Licht bewolkt  
   Wind: WNW 9.3 km/h
Wind: WNW 9.3 km/h
Temperatuur: 5°C
Voelt als: 3°C
Dauwpunt: 2°C
Vochtigheid: 81%
Barometer: 1030 hPa
Bewolking: Licht bewolkt
Zicht: meer dan 10 km
Bewolking: Licht bewolkt 3800 ft
EBAW 182020Z 29005KT 9999 FEW038 05/02 Q1030 NOSIG
EBLG - Liège
Gewijzigd: 18-01-2020 21:20
Licht bewolkt  
Licht bewolkt  
   Wind: Westen 9.3 km/h
Wind: Westen 9.3 km/h
Temperatuur: 1°C
Voelt als: -2°C
Dauwpunt: 0°C
Vochtigheid: 93%
Barometer: 1029 hPa
Bewolking: Licht bewolkt
Zicht: meer dan 10 km
Bewolking: Licht bewolkt 2400 ft
EBLG 182020Z 28005KT 9999 FEW024 01/M00 Q1029 NOSIG
EBCV - Mons/Bergen
Gewijzigd: 18-01-2020 21:25
  
  
   Wind: WNW 7.4 km/h
Wind: WNW 7.4 km/h
Temperatuur: 2°C
Voelt als: 0°C
Dauwpunt: 1°C
Vochtigheid: 93%
Barometer: 1028 hPa
Zicht: meer dan 10 km
EBCV 182025Z AUTO 29004KT 9999 /// 02/01 Q1028 BLU
EHBK - Maastricht
Gewijzigd: 18-01-2020 21:25
Licht bewolkt  
Licht bewolkt  
   Wind: Westen 7.4 km/h
Wind: Westen 7.4 km/h
Temperatuur: 3°C
Voelt als: 1°C
Dauwpunt: 0°C
Vochtigheid: 81%
Barometer: 1029 hPa
Bewolking: Licht bewolkt
Zicht: meer dan 10 km
Bewolking: Licht bewolkt 3400 ft
EHBK 182025Z AUTO 27004KT 240V310 9999 FEW034 03/00 Q1029 NOSIG
ELLX - Luxemburg
Gewijzigd: 18-01-2020 21:20
Licht bewolkt  
Licht bewolkt  
   Wind: Westen 7.4 km/h
Wind: Westen 7.4 km/h
Temperatuur: 0°C
Voelt als: -3°C
Dauwpunt: 0°C
Vochtigheid: 100%
Barometer: 1029 hPa
Bewolking: Licht bewolkt
Zicht: meer dan 10 km
Bewolking: Licht bewolkt 3000 ft
ELLX 182020Z 27004KT 9999 FEW030 00/M00 Q1029 NOSIG
EBOS - Oostende
Gewijzigd: 18-01-2020 21:20
Licht bewolkt  
Licht bewolkt  
   Wind: NNW 20.4 km/h
Wind: NNW 20.4 km/h
Temperatuur: 6°C
Voelt als: 2°C
Dauwpunt: 1°C
Vochtigheid: 71%
Barometer: 1031 hPa
Bewolking: Licht bewolkt
Zicht: meer dan 10 km
Bewolking: Licht bewolkt 2800 ft
EBOS 182020Z 34011KT 9999 FEW028 06/01 Q1031 NOSIG

Script ontwikkeld door  Saratoga-weather.org Aangepast voor de template door  Weerstation Leuven

U vindt ons ook hier:

Het Weer Aktueel

UK Metoffice

European Weather Network

Weather Underground

AWEKAS